Map

Track Data

SID SEASON NUMBER BASIN SUBBASIN NAME ISO_TIME NATURE LAT LON WMO_WIND WMO_PRES WMO_AGENCY TRACK_TYPE DIST2LAND LANDFALL IFLAG USA_AGENCY USA_ATCF_ID USA_LAT USA_LON USA_RECORD USA_STATUS USA_WIND USA_PRES USA_SSHS USA_R34_NE USA_R34_SE USA_R34_SW USA_R34_NW USA_R50_NE USA_R50_SE USA_R50_SW USA_R50_NW USA_R64_NE USA_R64_SE USA_R64_SW USA_R64_NW USA_POCI USA_ROCI USA_RMW USA_EYE TOKYO_LAT TOKYO_LON TOKYO_GRADE TOKYO_WIND TOKYO_PRES TOKYO_R50_DIR TOKYO_R50_LONG TOKYO_R50_SHORT TOKYO_R30_DIR TOKYO_R30_LONG TOKYO_R30_SHORT TOKYO_LAND CMA_LAT CMA_LON CMA_CAT CMA_WIND CMA_PRES HKO_LAT HKO_LON HKO_CAT HKO_WIND HKO_PRES NEWDELHI_LAT NEWDELHI_LON NEWDELHI_GRADE NEWDELHI_WIND NEWDELHI_PRES NEWDELHI_CI NEWDELHI_DP NEWDELHI_POCI REUNION_LAT REUNION_LON REUNION_TYPE REUNION_WIND REUNION_PRES REUNION_TNUM REUNION_CI REUNION_RMW REUNION_R34_NE REUNION_R34_SE REUNION_R34_SW REUNION_R34_NW REUNION_R50_NE REUNION_R50_SE REUNION_R50_SW REUNION_R50_NW REUNION_R64_NE REUNION_R64_SE REUNION_R64_SW REUNION_R64_NW BOM_LAT BOM_LON BOM_TYPE BOM_WIND BOM_PRES BOM_TNUM BOM_CI BOM_RMW BOM_R34_NE BOM_R34_SE BOM_R34_SW BOM_R34_NW BOM_R50_NE BOM_R50_SE BOM_R50_SW BOM_R50_NW BOM_R64_NE BOM_R64_SE BOM_R64_SW BOM_R64_NW BOM_ROCI BOM_POCI BOM_EYE BOM_POS_METHOD BOM_PRES_METHOD NADI_LAT NADI_LON NADI_CAT NADI_WIND NADI_PRES WELLINGTON_LAT WELLINGTON_LON WELLINGTON_WIND WELLINGTON_PRES DS824_LAT DS824_LON DS824_STAGE DS824_WIND DS824_PRES TD9636_LAT TD9636_LON TD9636_STAGE TD9636_WIND TD9636_PRES TD9635_LAT TD9635_LON TD9635_WIND TD9635_PRES TD9635_ROCI NEUMANN_LAT NEUMANN_LON NEUMANN_CLASS NEUMANN_WIND NEUMANN_PRES MLC_LAT MLC_LON MLC_CLASS MLC_WIND MLC_PRES USA_GUST BOM_GUST BOM_GUST_PER REUNION_GUST REUNION_GUST_PER USA_SEAHGT USA_SEARAD_NE USA_SEARAD_SE USA_SEARAD_SW USA_SEARAD_NW STORM_SPEED STORM_DIR
1946249N20090 1946 50 NI BB NOT_NAMED 1946-09-05 18:00:00 TS 19.9000 89.9000 main 207 193 O________O____ jtwc_io IO101946 19.9000 89.9000 -1 19.9000 89.9000 TC 2 321
1946249N20090 1946 50 NI BB NOT_NAMED 1946-09-05 21:00:00 TS 19.9925 89.8125 main 193 178 P________P____ IO101946 19.9925 89.8125 -1 19.9925 89.8125 TC 3 316
1946249N20090 1946 50 NI BB NOT_NAMED 1946-09-06 00:00:00 TS 20.1000 89.7000 main 178 161 O________O____ jtwc_io IO101946 20.1000 89.7000 -1 20.1000 89.7000 TC 25 4 312
1946249N20090 1946 50 NI BB NOT_NAMED 1946-09-06 03:00:00 TS 20.2310 89.5332 main 161 135 P________PO___ IO101946 20.2349 89.5374 -1 20.2349 89.5374 TC 25 20.2000 89.5000 1 5 308
1946249N20090 1946 50 NI BB NOT_NAMED 1946-09-06 06:00:00 TS 20.4034 89.2845 main 135 111 O________OP___ jtwc_io IO101946 20.4000 89.3000 -1 20.4000 89.3000 TC 25 20.4171 89.2227 1 7 306
1946249N20090 1946 50 NI BB NOT_NAMED 1946-09-06 09:00:00 TS 20.6156 88.9708 main 111 90 P________PP___ IO101946 20.6149 88.9877 -1 20.6149 88.9877 TC 25 20.6173 88.9259 1 8 301
1946249N20090 1946 50 NI BB NOT_NAMED 1946-09-06 12:00:00 TS 20.7946 88.5971 main 90 78 O________OP___ jtwc_io IO101946 20.8000 88.6000 -1 20.8000 88.6000 TC 25 20.7838 88.5912 1 8 290
1946249N20090 1946 50 NI BB NOT_NAMED 1946-09-06 15:00:00 TS 20.8866 88.1816 main 78 73 P________PO___ IO101946 20.8799 88.1724 -1 20.8799 88.1724 TC 25 20.9000 88.2000 1 8 279
1946249N20090 1946 50 NI BB NOT_NAMED 1946-09-06 18:00:00 TS 20.9182 87.7139 main 73 23 O________OP___ jtwc_io IO101946 20.9000 87.7000 -1 20.9000 87.7000 TC 25 20.9547 87.7417 1 9 272
1946249N20090 1946 50 NI BB NOT_NAMED 1946-09-06 21:00:00 TS 20.9251 87.2172 main 23 0 P________PP___ IO101946 20.9074 87.2074 -1 20.9074 87.2074 TC 25 20.9605 87.2368 1 9 270
1946249N20090 1946 50 NI BB NOT_NAMED 1946-09-07 00:00:00 TS 20.9120 86.7045 main 0 0 O________OP___ jtwc_io IO101946 20.9000 86.7000 -1 20.9000 86.7000 TC 25 20.9359 86.7136 1 10 269
1946249N20090 1946 50 NI BB NOT_NAMED 1946-09-07 03:00:00 TS 20.9050 86.1900 main 0 0 P________PO___ IO101946 20.9075 86.1851 -1 20.9075 86.1851 TC 25 20.9000 86.2000 1 9 269
1946249N20090 1946 50 NI BB NOT_NAMED 1946-09-07 06:00:00 TS 20.8939 85.7132 main 0 0 O________OP___ jtwc_io IO101946 20.9000 85.7000 -1 20.9000 85.7000 TC 25 20.8816 85.7396 1 8 266
1946249N20090 1946 50 NI BB NOT_NAMED 1946-09-07 09:00:00 TS 20.8520 85.2974 main 0 0 P________PP___ IO101946 20.8497 85.2999 -1 20.8497 85.2999 TC 25 20.8567 85.2924 1 8 264
1946249N20090 1946 50 NI BB NOT_NAMED 1946-09-07 12:00:00 TS 20.8095 84.8830 main 0 0 O________OP___ jtwc_io IO101946 20.8000 84.9000 -1 20.8000 84.9000 TC 25 20.8285 84.8490 1 8 266
1946249N20090 1946 50 NI BB NOT_NAMED 1946-09-07 15:00:00 TS 20.8000 84.4051 main 0 0 P________PO___ IO101946 20.8000 84.4076 -1 20.8000 84.4076 TC 25 20.8000 84.4000 1 9 269
1946249N20090 1946 50 NI BB NOT_NAMED 1946-09-07 18:00:00 TS 20.7889 83.9093 main 0 0 O________OP___ jtwc_io IO101946 20.8000 83.9000 -1 20.8000 83.9000 TC 25 20.7667 83.9280 1 9 266
1946249N20090 1946 50 NI BB NOT_NAMED 1946-09-07 21:00:00 TS 20.7447 83.4499 main 0 0 P________PP___ IO101946 20.7498 83.4499 -1 20.7498 83.4499 TC 25 20.7347 83.4498 1 9 264
1946249N20090 1946 50 NI BB NOT_NAMED 1946-09-08 00:00:00 TS 20.7035 82.9906 main 0 0 O________OP___ jtwc_io IO101946 20.7000 83.0000 -1 20.7000 83.0000 TC 25 20.7104 82.9717 1 9 266
1946249N20090 1946 50 NI BB NOT_NAMED 1946-09-08 03:00:00 TS 20.6900 82.4950 main 0 0 P________PO___ IO101946 20.6850 82.4925 -1 20.6850 82.4925 TC 25 20.7000 82.5000 1 9 270
1946249N20090 1946 50 NI BB NOT_NAMED 1946-09-08 06:00:00 TS 20.7034 82.0157 main 0 0 O________OP___ jtwc_io IO101946 20.7000 82.0000 -1 20.7000 82.0000 TC 25 20.7101 82.0470 1 8 274
1946249N20090 1946 50 NI BB NOT_NAMED 1946-09-08 09:00:00 TS 20.7446 81.6001 main 0 0 P________PP___ IO101946 20.7497 81.6001 -1 20.7497 81.6001 TC 25 20.7343 81.6002 1 8 276
1946249N20090 1946 50 NI BB NOT_NAMED 1946-09-08 12:00:00 TS 20.7888 81.1844 main 0 0 O________OP___ jtwc_io IO101946 20.8000 81.2000 -1 20.8000 81.2000 TC 25 20.7664 81.1532 1 8 274
1946249N20090 1946 50 NI BB NOT_NAMED 1946-09-08 15:00:00 TS 20.8000 80.7049 main 0 0 P________PO___ IO101946 20.8000 80.7074 -1 20.8000 80.7074 TC 25 20.8000 80.7000 1 9 271
1946249N20090 1946 50 NI BB NOT_NAMED 1946-09-08 18:00:00 TS 20.8041 80.2133 main 0 0 O________OP___ jtwc_io IO101946 20.8000 80.2000 -1 20.8000 80.2000 TC 25 20.8124 80.2400 1 9 272
1946249N20090 1946 50 NI BB NOT_NAMED 1946-09-08 21:00:00 TS 20.8371 79.7573 main 0 0 P________PP___ IO101946 20.8423 79.7500 -1 20.8423 79.7500 TC 25 20.8268 79.7719 1 9 275
1946249N20090 1946 50 NI BB NOT_NAMED 1946-09-09 00:00:00 TS 20.8843 79.2977 main 0 0 O________OP___ jtwc_io IO101946 20.9000 79.3000 -1 20.9000 79.3000 TC 25 20.8529 79.2930 1 9 276
1946249N20090 1946 50 NI BB NOT_NAMED 1946-09-09 03:00:00 TS 20.9282 78.8099 main 0 0 P________PO___ IO101946 20.9423 78.8149 -1 20.9423 78.8149 TC 25 20.9000 78.8000 1 9 276
1946249N20090 1946 50 NI BB NOT_NAMED 1946-09-09 06:00:00 TS 20.9901 78.2924 main 0 0 O________OP___ jtwc_io IO101946 21.0000 78.3000 -1 21.0000 78.3000 TC 25 20.9703 78.2773 1 10 279
1946249N20090 1946 50 NI AS NOT_NAMED 1946-09-09 09:00:00 TS 21.0825 77.7475 main 0 0 P________PP___ IO101946 21.0925 77.7500 -1 21.0925 77.7500 TC 25 21.0625 77.7425 1 10 281
1946249N20090 1946 50 NI AS NOT_NAMED 1946-09-09 12:00:00 TS 21.1911 77.2038 main 0 0 O________OP___ jtwc_io IO101946 21.2000 77.2000 -1 21.2000 77.2000 TC 25 21.1734 77.2115 1 10 282
1946249N20090 1946 50 NI AS NOT_NAMED 1946-09-09 15:00:00 TS 21.2949 76.6899 main 0 0 P________PO___ IO101946 21.2923 76.6849 -1 21.2923 76.6849 TC 25 21.3000 76.7000 1 10 284
1946249N20090 1946 50 NI AS NOT_NAMED 1946-09-09 18:00:00 TS 21.4157 76.2079 main 0 0 O________OP___ jtwc_io IO101946 21.4000 76.2000 -1 21.4000 76.2000 TC 25 21.4393 76.2197 1 9 287
1946249N20090 1946 50 NI AS NOT_NAMED 1946-09-09 21:00:00 TS 21.5607 75.7526 main 0 0 P________PP___ IO101946 21.5402 75.7427 -1 21.5402 75.7427 TC 25 21.5880 75.7657 1 9 290
1946249N20090 1946 50 NI AS NOT_NAMED 1946-09-10 00:00:00 TS 21.7214 75.3144 main 0 0 O________OP___ jtwc_io IO101946 21.7000 75.3000 -1 21.7000 75.3000 TC 25 21.7427 75.3288 1 9 293
1946249N20090 1946 50 NI AS NOT_NAMED 1946-09-10 03:00:00 NR 21.9000 74.9000 main 0 __________O___ IO101946 -1 TC 21.9000 74.9000 1 8 295

About IBTrACS Database

This database is a web-friendly format of International Best Track Archive for Climate Stewardship (IBTrACS), a global best track data archive curated by NOAA dating back to 1842.

Updated: 2021-12-03